createdAt,value
2022-10-24T00:01:10.388Z,14.93
2022-10-24T00:03:37.480Z,14.99
2022-10-24T00:06:06.215Z,15.00
2022-10-24T00:08:34.512Z,14.99
2022-10-24T00:11:01.288Z,14.99
2022-10-24T00:13:28.384Z,14.94
2022-10-24T00:15:55.192Z,14.99
2022-10-24T00:18:22.228Z,15.01
2022-10-24T00:20:49.050Z,14.99
2022-10-24T00:23:16.075Z,15.02
2022-10-24T00:25:42.828Z,15.00
2022-10-24T00:28:09.906Z,15.02
2022-10-24T00:30:36.672Z,14.98
2022-10-24T00:33:03.825Z,14.98
2022-10-24T00:35:31.088Z,14.99
2022-10-24T00:37:58.152Z,14.98
2022-10-24T00:40:24.991Z,14.92
2022-10-24T00:42:52.092Z,14.96
2022-10-24T00:45:57.936Z,14.98
2022-10-24T00:48:31.427Z,15.00
2022-10-24T00:51:01.138Z,14.97
2022-10-24T00:53:28.319Z,15.01
2022-10-24T00:55:57.331Z,14.99
2022-10-24T00:58:26.195Z,14.99
2022-10-24T01:00:53.023Z,14.96
2022-10-24T01:03:20.079Z,14.96
2022-10-24T01:05:58.516Z,14.93
2022-10-24T01:08:31.443Z,14.88
2022-10-24T01:10:58.208Z,14.95
2022-10-24T01:13:27.997Z,14.94
2022-10-24T01:16:04.067Z,14.91
2022-10-24T01:18:34.772Z,14.95
2022-10-24T01:21:15.891Z,14.86
2022-10-24T01:23:50.726Z,14.89
2022-10-24T01:26:39.037Z,14.92
2022-10-24T01:29:34.646Z,14.95
2022-10-24T01:32:12.191Z,14.91
2022-10-24T01:34:48.918Z,14.95
2022-10-24T01:37:18.759Z,14.91
2022-10-24T01:39:51.267Z,14.92
2022-10-24T01:42:20.181Z,14.83
2022-10-24T01:44:49.414Z,14.91
2022-10-24T01:47:28.049Z,14.92
2022-10-24T01:50:06.383Z,14.94
2022-10-24T01:52:34.490Z,14.93
2022-10-24T01:55:01.425Z,14.93
2022-10-24T01:57:29.313Z,14.91
2022-10-24T01:59:56.225Z,14.88
2022-10-24T02:02:31.245Z,14.92
2022-10-24T02:05:07.081Z,14.82
2022-10-24T02:07:34.271Z,14.84
2022-10-24T02:10:04.232Z,14.90
2022-10-24T02:12:31.433Z,14.81
2022-10-24T02:15:02.095Z,14.86
2022-10-24T02:20:01.208Z,14.87
2022-10-24T02:22:28.186Z,14.80
2022-10-24T02:25:02.456Z,14.82
2022-10-24T02:27:33.196Z,14.84
2022-10-24T02:30:09.881Z,14.87
2022-10-24T02:32:39.340Z,14.90
2022-10-24T02:35:06.874Z,14.88
2022-10-24T02:37:35.004Z,14.88
2022-10-24T02:40:02.144Z,14.90
2022-10-24T02:45:00.837Z,14.86
2022-10-24T02:47:27.909Z,14.87
2022-10-24T02:49:54.760Z,14.88
2022-10-24T02:52:21.955Z,14.89
2022-10-24T02:54:48.701Z,14.86
2022-10-24T02:57:15.741Z,14.90
2022-10-24T02:59:42.476Z,14.89
2022-10-24T03:02:09.532Z,14.88
2022-10-24T03:04:36.307Z,14.87
2022-10-24T03:07:03.384Z,14.82
2022-10-24T03:09:30.131Z,14.82
2022-10-24T03:11:57.151Z,14.88
2022-10-24T03:14:23.887Z,14.91
2022-10-24T03:16:50.946Z,14.87
2022-10-24T03:19:17.747Z,14.89
2022-10-24T03:21:44.742Z,14.91
2022-10-24T03:24:11.527Z,14.91
2022-10-24T03:26:38.512Z,14.87
2022-10-24T03:29:05.351Z,14.89
2022-10-24T03:31:32.392Z,14.86
2022-10-24T03:33:59.184Z,14.88
2022-10-24T03:36:26.278Z,14.89
2022-10-24T03:38:53.027Z,14.89
2022-10-24T03:41:20.051Z,14.92
2022-10-24T03:43:46.806Z,14.95
2022-10-24T03:46:14.004Z,14.93
2022-10-24T03:48:40.808Z,14.90
2022-10-24T03:51:07.916Z,14.93
2022-10-24T03:53:34.936Z,14.93
2022-10-24T03:56:02.392Z,14.95
2022-10-24T03:58:29.183Z,14.96
2022-10-24T04:00:58.969Z,14.95
2022-10-24T04:03:28.980Z,14.93
2022-10-24T04:05:55.980Z,14.96
2022-10-24T04:08:22.792Z,14.95
2022-10-24T04:10:50.052Z,14.98
2022-10-24T04:13:16.807Z,14.96
2022-10-24T04:15:43.855Z,14.99
2022-10-24T04:18:10.813Z,14.98
2022-10-24T04:20:37.847Z,15.00
2022-10-24T04:23:04.777Z,15.00
2022-10-24T04:25:31.963Z,15.00
2022-10-24T04:27:58.756Z,15.01
2022-10-24T04:30:26.448Z,15.05
2022-10-24T04:32:53.273Z,15.07
2022-10-24T04:35:20.319Z,15.05
2022-10-24T04:37:47.083Z,15.08
2022-10-24T04:40:14.056Z,15.07
2022-10-24T04:42:40.866Z,15.10
2022-10-24T04:45:08.595Z,15.06
2022-10-24T04:47:35.439Z,15.09
2022-10-24T04:50:02.575Z,15.11
2022-10-24T04:52:29.375Z,15.08
2022-10-24T04:54:56.399Z,15.17
2022-10-24T04:57:23.179Z,15.17
2022-10-24T04:59:50.128Z,15.18
2022-10-24T05:02:17.013Z,15.14
2022-10-24T05:04:44.174Z,15.16
2022-10-24T05:07:10.943Z,15.18
2022-10-24T05:09:37.967Z,15.17
2022-10-24T05:12:05.055Z,15.17
2022-10-24T05:14:32.171Z,15.18
2022-10-24T05:16:59.014Z,15.16
2022-10-24T05:19:26.087Z,15.21
2022-10-24T05:21:52.831Z,15.23
2022-10-24T05:24:19.859Z,15.26
2022-10-24T05:26:46.605Z,15.28
2022-10-24T05:29:13.584Z,15.30
2022-10-24T05:31:40.940Z,15.27
2022-10-24T05:34:07.907Z,15.26
2022-10-24T05:36:34.861Z,15.26
2022-10-24T05:39:01.902Z,15.28
2022-10-24T05:41:28.754Z,15.28
2022-10-24T05:43:55.771Z,15.31
2022-10-24T05:46:22.558Z,15.34
2022-10-24T05:48:49.558Z,15.34
2022-10-24T05:51:16.394Z,15.33
2022-10-24T05:53:43.407Z,15.30
2022-10-24T05:56:10.337Z,15.30
2022-10-24T05:58:37.390Z,15.33
2022-10-24T06:01:04.731Z,15.36
2022-10-24T06:03:31.823Z,15.40
2022-10-24T06:06:03.457Z,15.39
2022-10-24T06:08:30.638Z,15.41
2022-10-24T06:10:57.413Z,15.37
2022-10-24T06:13:24.439Z,15.42
2022-10-24T06:15:51.380Z,15.37
2022-10-24T06:18:18.355Z,15.45
2022-10-24T06:20:45.303Z,15.44
2022-10-24T06:23:12.316Z,15.43
2022-10-24T06:25:42.180Z,15.47
2022-10-24T06:30:41.748Z,15.48
2022-10-24T06:33:08.751Z,15.43
2022-10-24T06:35:35.847Z,15.46
2022-10-24T06:38:02.872Z,15.49
2022-10-24T06:40:29.651Z,15.51
2022-10-24T06:42:56.710Z,15.57
2022-10-24T06:45:24.238Z,15.59
2022-10-24T06:47:54.052Z,15.61
2022-10-24T06:50:21.459Z,15.54
2022-10-24T06:52:48.455Z,15.63
2022-10-24T06:55:15.427Z,15.63
2022-10-24T06:57:42.614Z,15.66
2022-10-24T07:00:10.451Z,15.66
2022-10-24T07:02:37.525Z,15.67
2022-10-24T07:05:04.603Z,15.66
2022-10-24T07:07:31.854Z,15.75
2022-10-24T07:09:58.711Z,15.77
2022-10-24T07:12:25.975Z,15.76
2022-10-24T07:14:52.747Z,15.75
2022-10-24T07:17:20.126Z,15.84
2022-10-24T07:19:52.606Z,15.84
2022-10-24T07:22:19.647Z,15.84
2022-10-24T07:24:46.459Z,15.87
2022-10-24T07:27:13.446Z,15.93
2022-10-24T07:29:40.208Z,15.97
2022-10-24T07:32:07.187Z,16.00
2022-10-24T07:34:34.882Z,16.00
2022-10-24T07:37:04.137Z,16.02
2022-10-24T07:39:30.926Z,16.02
2022-10-24T07:41:57.918Z,16.02
2022-10-24T07:44:24.770Z,16.11
2022-10-24T07:46:51.791Z,16.09
2022-10-24T07:49:18.573Z,16.13
2022-10-24T07:51:45.613Z,16.16
2022-10-24T07:54:12.418Z,16.18
2022-10-24T07:56:39.443Z,16.19
2022-10-24T07:59:09.469Z,16.22
2022-10-24T08:01:40.852Z,16.20
2022-10-24T08:04:07.684Z,16.26
2022-10-24T08:06:34.958Z,16.28
2022-10-24T08:09:02.030Z,16.28
2022-10-24T08:11:29.303Z,16.32
2022-10-24T08:13:57.353Z,16.33
2022-10-24T08:16:24.614Z,16.36
2022-10-24T08:18:52.402Z,16.40
2022-10-24T08:21:20.289Z,16.43
2022-10-24T08:23:47.983Z,16.46
2022-10-24T08:26:16.891Z,16.48
2022-10-24T08:28:43.877Z,16.46
2022-10-24T08:31:12.774Z,16.49
2022-10-24T08:33:39.754Z,16.53
2022-10-24T08:36:19.365Z,16.55
2022-10-24T08:38:46.125Z,16.59
2022-10-24T08:41:16.565Z,16.62
2022-10-24T08:43:43.300Z,16.62
2022-10-24T08:46:52.232Z,16.60
2022-10-24T08:49:31.332Z,16.63
2022-10-24T08:52:04.081Z,16.61
2022-10-24T08:54:36.804Z,16.63
2022-10-24T08:57:04.186Z,16.66
2022-10-24T08:59:31.976Z,16.63
2022-10-24T09:02:04.146Z,16.69
2022-10-24T09:04:36.627Z,16.62
2022-10-24T09:07:03.733Z,16.64
2022-10-24T09:09:39.325Z,16.71
2022-10-24T09:12:12.371Z,16.78
2022-10-24T09:14:40.755Z,16.82
2022-10-24T09:17:25.163Z,16.82
2022-10-24T09:20:23.530Z,16.88
2022-10-24T09:22:50.756Z,16.92
2022-10-24T09:25:21.904Z,16.93
2022-10-24T09:27:49.443Z,16.95
2022-10-24T09:30:18.627Z,16.95
2022-10-24T09:32:45.684Z,16.97
2022-10-24T09:35:24.018Z,16.99
2022-10-24T09:37:55.233Z,17.02
2022-10-24T09:40:30.501Z,17.03
2022-10-24T09:43:04.303Z,17.04
2022-10-24T09:45:37.485Z,17.10
2022-10-24T09:48:15.118Z,17.14
2022-10-24T09:50:42.765Z,17.20
2022-10-24T09:53:20.945Z,17.25
2022-10-24T09:55:48.733Z,17.29
2022-10-24T09:58:20.787Z,17.31
2022-10-24T10:01:17.054Z,17.37
2022-10-24T10:03:44.347Z,17.38
2022-10-24T10:06:18.825Z,17.40
2022-10-24T10:08:56.269Z,17.41
2022-10-24T10:11:35.166Z,17.46
2022-10-24T10:14:02.957Z,17.50
2022-10-24T10:16:34.546Z,17.53
2022-10-24T10:19:05.569Z,17.64
2022-10-24T10:21:58.300Z,17.68
2022-10-24T10:24:42.243Z,17.74
2022-10-24T10:27:32.537Z,17.80
2022-10-24T10:30:11.612Z,17.87
2022-10-24T10:33:17.616Z,17.91
2022-10-24T10:35:55.896Z,17.97
2022-10-24T10:38:35.065Z,18.02
2022-10-24T10:41:25.128Z,18.07
2022-10-24T10:44:13.266Z,18.13
2022-10-24T10:47:02.459Z,18.18
2022-10-24T10:49:39.907Z,18.25
2022-10-24T10:52:09.805Z,18.31
2022-10-24T10:55:14.341Z,18.34
2022-10-24T10:58:13.126Z,18.45
2022-10-24T11:00:58.841Z,18.51
2022-10-24T11:03:30.887Z,18.58
2022-10-24T11:06:16.407Z,18.67
2022-10-24T11:09:04.024Z,18.72
2022-10-24T11:11:32.212Z,18.80
2022-10-24T11:14:30.020Z,18.90
2022-10-24T11:16:59.048Z,18.95
2022-10-24T11:19:27.887Z,19.00
2022-10-24T11:21:56.645Z,19.03
2022-10-24T11:24:23.647Z,19.10
2022-10-24T11:26:57.281Z,19.15
2022-10-24T11:29:42.104Z,19.21
2022-10-24T11:32:26.468Z,19.26
2022-10-24T11:34:59.897Z,19.34
2022-10-24T11:37:54.800Z,19.39
2022-10-24T11:40:22.764Z,19.43
2022-10-24T11:42:55.907Z,19.51
2022-10-24T11:45:28.775Z,19.50
2022-10-24T11:47:55.627Z,19.55
2022-10-24T11:50:25.857Z,19.58
2022-10-24T11:52:54.856Z,19.62
2022-10-24T11:55:24.347Z,19.68
2022-10-24T11:57:53.742Z,19.68
2022-10-24T12:00:26.163Z,19.70
2022-10-24T12:03:11.683Z,19.74
2022-10-24T12:06:02.872Z,19.80
2022-10-24T12:08:54.999Z,19.83
2022-10-24T12:11:21.974Z,19.86
2022-10-24T12:14:07.248Z,19.86
2022-10-24T12:16:57.312Z,19.89
2022-10-24T12:19:24.098Z,19.93
2022-10-24T12:21:55.110Z,19.97
2022-10-24T12:24:30.304Z,19.99
2022-10-24T12:27:02.783Z,20.00
2022-10-24T12:29:33.598Z,20.04
2022-10-24T12:32:24.075Z,20.03
2022-10-24T12:37:49.171Z,20.06
2022-10-24T12:40:58.724Z,20.07
2022-10-24T12:43:38.546Z,20.11
2022-10-24T12:46:15.888Z,20.10
2022-10-24T12:48:58.070Z,20.09
2022-10-24T12:51:40.330Z,20.11
2022-10-24T12:54:13.548Z,20.15
2022-10-24T12:56:49.656Z,20.14
2022-10-24T12:59:20.902Z,20.15
2022-10-24T13:01:49.044Z,20.18
2022-10-24T13:04:35.169Z,20.16
2022-10-24T13:07:28.777Z,20.18
2022-10-24T13:10:01.954Z,20.19
2022-10-24T13:13:03.795Z,20.20
2022-10-24T13:15:57.754Z,20.20
2022-10-24T13:18:31.206Z,20.19
2022-10-24T13:21:31.333Z,20.19
2022-10-24T13:24:16.599Z,20.18
2022-10-24T13:26:47.887Z,20.20
2022-10-24T13:29:23.955Z,20.19
2022-10-24T13:31:51.691Z,20.18
2022-10-24T13:34:30.644Z,20.17
2022-10-24T13:37:10.877Z,20.20
2022-10-24T13:39:41.322Z,20.19
2022-10-24T13:42:19.597Z,20.18
2022-10-24T13:44:48.525Z,20.20
2022-10-24T13:47:21.449Z,20.18
2022-10-24T13:49:54.857Z,20.19
2022-10-24T13:52:29.928Z,20.19
2022-10-24T13:55:00.354Z,20.18
2022-10-24T13:57:28.953Z,20.18
2022-10-24T13:59:57.592Z,20.19
2022-10-24T14:02:29.772Z,20.18
2022-10-24T14:04:59.311Z,20.20
2022-10-24T14:07:28.407Z,20.19
2022-10-24T14:10:02.736Z,20.22
2022-10-24T14:12:30.991Z,20.19
2022-10-24T14:14:58.856Z,20.22
2022-10-24T14:17:28.791Z,20.22
2022-10-24T14:20:08.855Z,20.21
2022-10-24T14:22:39.738Z,20.21
2022-10-24T14:25:28.575Z,20.22
2022-10-24T14:27:58.379Z,20.21
2022-10-24T14:30:28.479Z,20.22
2022-10-24T14:33:13.781Z,20.19
2022-10-24T14:35:40.905Z,20.19
2022-10-24T14:38:09.869Z,20.20
2022-10-24T14:40:36.729Z,20.18
2022-10-24T14:43:03.779Z,20.18
2022-10-24T14:45:30.709Z,20.18
2022-10-24T14:47:58.961Z,20.17
2022-10-24T14:50:39.520Z,20.15
2022-10-24T14:53:06.676Z,20.15
2022-10-24T14:55:33.516Z,20.14
2022-10-24T14:58:00.582Z,20.16
2022-10-24T15:00:28.692Z,20.12
2022-10-24T15:02:57.522Z,20.10
2022-10-24T15:05:24.528Z,20.11
2022-10-24T15:08:23.461Z,20.08
2022-10-24T15:10:50.472Z,20.06
2022-10-24T15:13:21.274Z,20.04
2022-10-24T15:15:52.294Z,20.04
2022-10-24T15:18:27.135Z,20.00
2022-10-24T15:21:06.304Z,19.99
2022-10-24T15:23:35.480Z,19.98
2022-10-24T15:26:20.493Z,19.94
2022-10-24T15:29:08.620Z,19.92
2022-10-24T15:31:39.918Z,19.91
2022-10-24T15:34:08.880Z,19.90
2022-10-24T15:36:36.327Z,19.89
2022-10-24T15:39:05.996Z,19.88
2022-10-24T15:41:32.945Z,19.84
2022-10-24T15:44:00.623Z,19.82
2022-10-24T15:46:28.164Z,19.81
2022-10-24T15:48:55.229Z,19.79
2022-10-24T15:51:23.219Z,19.77
2022-10-24T15:53:50.410Z,19.75
2022-10-24T15:56:17.430Z,19.73
2022-10-24T15:58:44.583Z,19.71
2022-10-24T16:01:22.649Z,19.69
2022-10-24T16:03:49.701Z,19.67
2022-10-24T16:06:16.466Z,19.64
2022-10-24T16:08:43.466Z,19.62
2022-10-24T16:11:11.693Z,19.59
2022-10-24T16:13:38.702Z,19.56
2022-10-24T16:16:05.870Z,19.56
2022-10-24T16:18:34.406Z,19.53
2022-10-24T16:21:01.570Z,19.49
2022-10-24T16:23:28.594Z,19.48
2022-10-24T16:25:55.353Z,19.45
2022-10-24T16:28:23.905Z,19.43
2022-10-24T16:30:50.861Z,19.41
2022-10-24T16:33:20.146Z,19.39
2022-10-24T16:35:49.938Z,19.36
2022-10-24T16:38:16.945Z,19.35
2022-10-24T16:40:46.909Z,19.33
2022-10-24T16:43:15.302Z,19.31
2022-10-24T16:45:42.799Z,19.27
2022-10-24T16:48:10.178Z,19.25
2022-10-24T16:50:36.965Z,19.24
2022-10-24T16:53:05.196Z,19.23
2022-10-24T16:55:32.120Z,19.22
2022-10-24T16:57:59.181Z,19.19
2022-10-24T17:00:26.101Z,19.17
2022-10-24T17:02:54.256Z,19.15
2022-10-24T17:05:22.915Z,19.14
2022-10-24T17:07:49.994Z,19.13
2022-10-24T17:10:20.626Z,19.12
2022-10-24T17:12:50.866Z,19.09
2022-10-24T17:15:21.106Z,19.06
2022-10-24T17:17:49.616Z,19.04
2022-10-24T17:20:17.416Z,19.03
2022-10-24T17:22:45.229Z,19.01
2022-10-24T17:25:23.196Z,19.00
2022-10-24T17:27:50.375Z,18.99
2022-10-24T17:30:27.423Z,18.94
2022-10-24T17:32:54.502Z,18.94
2022-10-24T17:35:22.378Z,18.94
2022-10-24T17:37:56.225Z,18.93
2022-10-24T17:40:25.313Z,18.91
2022-10-24T17:42:52.581Z,18.90
2022-10-24T17:45:21.205Z,18.88
2022-10-24T17:47:48.608Z,18.86
2022-10-24T17:50:15.533Z,18.86
2022-10-24T17:52:43.774Z,18.86
2022-10-24T17:55:41.021Z,18.82
2022-10-24T17:58:08.341Z,18.82
2022-10-24T18:00:35.261Z,18.77
2022-10-24T18:03:02.325Z,18.79
2022-10-24T18:05:29.879Z,18.78
2022-10-24T18:07:58.084Z,18.77
2022-10-24T18:10:24.979Z,18.76
2022-10-24T18:12:52.007Z,18.75
2022-10-24T18:15:21.915Z,18.73
2022-10-24T18:17:49.262Z,18.73
2022-10-24T18:20:16.350Z,18.71
2022-10-24T18:22:43.958Z,18.70
2022-10-24T18:25:11.952Z,18.69
2022-10-24T18:27:39.484Z,18.69
2022-10-24T18:30:06.834Z,18.68
2022-10-24T18:32:34.022Z,18.66
2022-10-24T18:35:00.799Z,18.66
2022-10-24T18:37:28.054Z,18.65
2022-10-24T18:39:55.164Z,18.63
2022-10-24T18:42:34.345Z,18.63
2022-10-24T18:45:01.558Z,18.61
2022-10-24T18:47:29.398Z,18.59
2022-10-24T18:49:57.406Z,18.59
2022-10-24T18:52:48.590Z,18.60
2022-10-24T18:55:20.944Z,18.59
2022-10-24T18:57:48.893Z,18.57
2022-10-24T19:00:26.589Z,18.55
2022-10-24T19:02:59.613Z,18.56
2022-10-24T19:05:41.313Z,18.53
2022-10-24T19:08:16.146Z,18.51
2022-10-24T19:10:43.309Z,18.47
2022-10-24T19:13:10.515Z,18.48
2022-10-24T19:15:39.210Z,18.59
2022-10-24T19:18:06.662Z,18.61
2022-10-24T19:20:35.132Z,18.57
2022-10-24T19:23:05.201Z,18.52
2022-10-24T19:25:32.934Z,18.48
2022-10-24T19:27:59.914Z,18.47
2022-10-24T19:30:26.678Z,18.44
2022-10-24T19:32:53.652Z,18.41
2022-10-24T19:35:20.474Z,18.39
2022-10-24T19:37:47.860Z,18.37
2022-10-24T19:40:14.853Z,18.36
2022-10-24T19:42:42.060Z,18.35
2022-10-24T19:45:09.089Z,18.33
2022-10-24T19:47:36.129Z,18.33
2022-10-24T19:50:02.952Z,18.29
2022-10-24T19:52:29.972Z,18.28
2022-10-24T19:54:56.770Z,18.27
2022-10-24T19:57:23.784Z,18.25
2022-10-24T19:59:50.540Z,18.23
2022-10-24T20:02:17.584Z,18.24
2022-10-24T20:04:48.133Z,18.21
2022-10-24T20:07:17.731Z,18.21
2022-10-24T20:09:44.749Z,18.18
2022-10-24T20:12:11.869Z,18.19
2022-10-24T20:14:38.646Z,18.19
2022-10-24T20:17:05.661Z,18.18
2022-10-24T20:19:32.397Z,18.16
2022-10-24T20:22:02.338Z,18.13
2022-10-24T20:24:30.605Z,18.13
2022-10-24T20:26:57.635Z,18.12
2022-10-24T20:29:24.480Z,18.09
2022-10-24T20:31:51.573Z,18.09
2022-10-24T20:34:18.333Z,18.04
2022-10-24T20:36:47.291Z,18.03
2022-10-24T20:39:16.070Z,18.03
2022-10-24T20:41:43.290Z,18.05
2022-10-24T20:44:11.036Z,17.98
2022-10-24T20:46:38.079Z,17.98
2022-10-24T20:49:05.089Z,17.99
2022-10-24T20:51:32.168Z,17.94
2022-10-24T20:53:59.007Z,17.95
2022-10-24T20:56:26.750Z,18.01
2022-10-24T20:58:54.604Z,17.94
2022-10-24T21:01:26.701Z,17.96
2022-10-24T21:03:54.174Z,17.89
2022-10-24T21:06:22.003Z,17.90
2022-10-24T21:08:49.780Z,17.85
2022-10-24T21:11:24.578Z,17.89
2022-10-24T21:14:08.103Z,17.87
2022-10-24T21:16:35.289Z,17.84
2022-10-24T21:19:02.335Z,17.88
2022-10-24T21:21:29.374Z,17.86
2022-10-24T21:24:03.930Z,17.84
2022-10-24T21:26:35.006Z,17.86
2022-10-24T21:29:14.584Z,17.83
2022-10-24T21:31:49.727Z,17.84
2022-10-24T21:34:17.148Z,17.85
2022-10-24T21:36:44.220Z,17.83
2022-10-24T21:39:14.851Z,17.80
2022-10-24T21:41:41.992Z,17.84
2022-10-24T21:44:08.907Z,17.76
2022-10-24T21:46:35.975Z,17.76
2022-10-24T21:49:02.779Z,17.74
2022-10-24T21:51:32.840Z,17.75
2022-10-24T21:54:20.715Z,17.75
2022-10-24T21:56:47.841Z,17.74
2022-10-24T21:59:16.446Z,17.72
2022-10-24T22:01:44.203Z,17.73
2022-10-24T22:04:11.539Z,17.74
2022-10-24T22:06:38.878Z,17.73
2022-10-24T22:09:06.924Z,17.69
2022-10-24T22:11:34.946Z,17.66
2022-10-24T22:14:02.003Z,17.69
2022-10-24T22:16:29.858Z,17.62
2022-10-24T22:18:57.154Z,17.66
2022-10-24T22:21:25.530Z,17.65
2022-10-24T22:23:52.347Z,17.65
2022-10-24T22:26:19.378Z,17.66
2022-10-24T22:28:46.179Z,17.62
2022-10-24T22:31:13.582Z,17.63
2022-10-24T22:33:40.638Z,17.67
2022-10-24T22:36:36.843Z,17.66
2022-10-24T22:39:04.798Z,17.66
2022-10-24T22:41:32.102Z,17.65
2022-10-24T22:43:59.074Z,17.62
2022-10-24T22:46:26.092Z,17.62
2022-10-24T22:48:55.437Z,17.59
2022-10-24T22:51:22.643Z,17.59
2022-10-24T22:53:49.641Z,17.55
2022-10-24T22:56:22.896Z,17.54
2022-10-24T22:58:49.884Z,17.54
2022-10-24T23:01:52.517Z,17.54
2022-10-24T23:04:39.119Z,17.55
2022-10-24T23:07:22.534Z,17.51
2022-10-24T23:09:52.291Z,17.52
2022-10-24T23:12:20.446Z,17.52
2022-10-24T23:14:47.842Z,17.51
2022-10-24T23:17:24.971Z,17.52
2022-10-24T23:19:52.058Z,17.45
2022-10-24T23:22:29.698Z,17.47
2022-10-24T23:24:58.435Z,17.47
2022-10-24T23:27:25.386Z,17.45
2022-10-24T23:29:52.398Z,17.47
2022-10-24T23:32:23.070Z,17.46
2022-10-24T23:34:50.521Z,17.43
2022-10-24T23:37:38.394Z,17.43
2022-10-24T23:40:14.394Z,17.42
2022-10-24T23:42:41.454Z,17.38
2022-10-24T23:45:15.496Z,17.40
2022-10-24T23:47:51.498Z,17.37
2022-10-24T23:50:30.625Z,17.38
2022-10-24T23:53:04.881Z,17.35
2022-10-24T23:55:32.163Z,17.32
2022-10-24T23:58:01.104Z,17.32
